Waterloo Wellington, Ontario

10:32 AM EDT on October 25, 2014 (GMT -0400)
Near Airport | Change Station
CLOSE
Current Station
Personal Weather Station
Location: Cambridge, ONTARIO
Elevation: 1037 ft
Nearby Weather Stations

Elev 1037 ft 43.46 °N, 80.35 °W | Updated 14 minutes ago

Haze
Haze
51.8 °F
Feels Like 51.8 °F
N
11.9
Wind Variable Wind from SSW

Today is forecast to be nearly the same temperature as yesterday.

Today
High -- | Low -- °F
--% Chance of Precip.
Yesterday
High -- | Low -- °F
Precip. -- in
7:47 AM 6:22 PM
Waxing Crescent, 3% visible
Pressure 29.73 in
Visibility 6.0 miles
Clouds Mostly Cloudy 9000 ft
Dew Point 49 °F
Humidity 89%
Rainfall 0.00 in
Snow Depth Not available.
UV 1 out of 12
Pollen Not available.
Air Quality Not available.
Flu Activity Not available.
METAR CYKF 251400Z AUTO 21015KT 6SM HZ BKN090 12/09 A2973 RMK PRESFR SLP068 DENSITY ALT 1100FT

More Conditions Fewer Conditions

Pressure 29.73 in
Visibility 6.0 miles
Clouds Mostly Cloudy 9000 ft
Dew Point 49 °F
Humidity 89%
Rainfall 0.00 in
Snow Depth Not available.
UV 1 out of 12
Pollen Not available.
Air Quality Not available.
Flu Activity Not available.
METAR CYKF 251400Z AUTO 21015KT 6SM HZ BKN090 12/09 A2973 RMK PRESFR SLP068 DENSITY ALT 1100FT

More Conditions Fewer Conditions

10-Day Weather Forecast

Almanac

Astronomy

Oct. 25, 2014 Rise Set
Actual Time 7:47 AM EDT 6:22 PM EDT
Civil Twilight 7:18 AM EDT 6:51 PM EDT
Nautical Twilight 6:45 AM EDT 7:25 PM EDT
Astronomical Twilight 6:12 AM EDT 7:58 PM EDT
Moon 9:27 AM EDT 7:41 PM EDT
Length of Visible Light 11h 33m
Length of Day
10h 34m
Tomorrow will be 2m 44s shorter.
Waxing Crescent, 3% of the Moon is Illuminated
Today
Waxing Crescent
Oct 30
First Quarter
Nov 6
Full
Nov 14
Last Quarter
Nov 22
New

Today's Extremes

Country Highs Country Lows

Community

WunderPhotos

Upload Photos

1,764,852 photos uploaded!

Nearby

Snow Depth

Not available.

Earthquake Activity

City Distance Mag. Time & Date
No recent earthquake activity has been reported nearby.
Minimum magnitude displayed is 2.5.

Coastal Water Temperatures

Place Temperature
No Stations Reporting

Nearby Weather Stations